TimeEST,TemperatureF,Dew PointF,Humidity,Sea Level PressureIn,VisibilityMPH,Wind Direction,Wind SpeedMPH,Gust SpeedMPH,PrecipitationIn,Events,Conditions,WindDirDegrees,DateUTC
12:15 AM,-9999,-9999,N/A,29.63,10.0,NNW,6.9,-,N/A,,Drizzle,340,2013-03-06 05:15:00
12:35 AM,-9999,-9999,N/A,29.62,10.0,NNW,8.1,-,0.01,Rain,Light Rain,330,2013-03-06 05:35:00
12:55 AM,-9999,-9999,N/A,29.62,10.0,NNW,8.1,-,0.02,Rain,Light Rain,340,2013-03-06 05:55:00
1:15 AM,-9999,-9999,N/A,29.63,10.0,NNW,8.1,-,0.02,Rain,Light Rain,330,2013-03-06 06:15:00
1:35 AM,-9999,-9999,N/A,29.64,4.0,North,5.8,-,0.05,Rain,Heavy Rain,360,2013-03-06 06:35:00
1:55 AM,-9999,-9999,N/A,29.63,10.0,North,4.6,-,0.07,Rain,Light Rain,350,2013-03-06 06:55:00
2:15 AM,-9999,-9999,N/A,29.63,10.0,NNW,6.9,-,0.01,Rain,Light Rain,330,2013-03-06 07:15:00
2:35 AM,37.6,37.6,100,29.63,10.0,NNW,8.1,-,0.03,Rain,Rain,330,2013-03-06 07:35:00
2:55 AM,-9999,-9999,N/A,29.62,5.0,North,4.6,-,0.05,,Unknown,350,2013-03-06 07:55:00
3:15 AM,-9999,-9999,N/A,29.63,10.0,Calm,Calm,-,N/A,Rain,Light Rain,0,2013-03-06 08:15:00
3:35 AM,-9999,-9999,N/A,29.62,10.0,Calm,Calm,-,0.01,Rain,Light Rain,0,2013-03-06 08:35:00
3:55 AM,-9999,-9999,N/A,29.62,10.0,Calm,Calm,-,0.01,,Overcast,0,2013-03-06 08:55:00
4:15 AM,-9999,-9999,N/A,29.63,10.0,NW,10.4,-,N/A,,Overcast,320,2013-03-06 09:15:00
4:35 AM,38.7,32.2,78,29.63,10.0,NW,10.4,-,N/A,,Overcast,320,2013-03-06 09:35:00
4:55 AM,38.5,31.8,77,29.63,10.0,NW,10.4,-,N/A,,Overcast,310,2013-03-06 09:55:00
5:15 AM,37.8,32.4,81,29.63,10.0,NW,5.8,-,N/A,,Overcast,310,2013-03-06 10:15:00
5:35 AM,38.8,30.2,71,29.63,10.0,NNW,12.7,20.7,N/A,,Overcast,330,2013-03-06 10:35:00
5:55 AM,38.7,29.1,69,29.64,10.0,NW,17.3,23.0,N/A,,Overcast,320,2013-03-06 10:55:00
6:15 AM,38.3,27.9,66,29.65,10.0,NW,15.0,23.0,N/A,,Overcast,320,2013-03-06 11:15:00
6:35 AM,37.9,27.5,66,29.65,10.0,NW,17.3,-,N/A,,Overcast,310,2013-03-06 11:35:00
6:55 AM,37.9,27.5,66,29.66,10.0,NW,10.4,20.7,N/A,,Overcast,320,2013-03-06 11:55:00
7:15 AM,37.8,27.9,67,29.67,10.0,NW,11.5,19.6,N/A,,Overcast,320,2013-03-06 12:15:00
7:35 AM,37.8,27.1,66,29.68,10.0,NW,16.1,28.8,N/A,,Overcast,310,2013-03-06 12:35:00
7:55 AM,37.8,26.2,63,29.69,10.0,NNW,18.4,32.2,N/A,,Overcast,330,2013-03-06 12:55:00
8:15 AM,37.4,26.2,64,29.70,10.0,NW,17.3,23.0,N/A,,Overcast,320,2013-03-06 13:15:00
8:35 AM,38.3,25.7,61,29.71,10.0,NW,19.6,28.8,N/A,,Overcast,310,2013-03-06 13:35:00
8:55 AM,39.0,25.9,59,29.71,10.0,NW,20.7,32.2,N/A,,Overcast,320,2013-03-06 13:55:00
9:15 AM,38.5,25.5,60,29.72,10.0,NW,20.7,29.9,N/A,,Overcast,310,2013-03-06 14:15:00
9:35 AM,40.3,26.2,57,29.73,10.0,NW,17.3,31.1,N/A,,Mostly Cloudy,310,2013-03-06 14:35:00
9:55 AM,39.6,25.9,58,29.74,10.0,NW,26.5,32.2,N/A,,Mostly Cloudy,320,2013-03-06 14:55:00
10:15 AM,42.8,28.0,56,29.74,10.0,NNW,27.6,33.4,N/A,,Scattered Clouds,330,2013-03-06 15:15:00
10:35 AM,43.5,28.0,54,29.75,10.0,NW,23.0,32.2,N/A,,Scattered Clouds,320,2013-03-06 15:35:00
10:55 AM,42.4,26.2,53,29.76,10.0,NW,25.3,39.1,N/A,,Scattered Clouds,310,2013-03-06 15:55:00
11:15 AM,43.0,27.1,54,29.76,10.0,NW,19.6,27.6,N/A,,Mostly Cloudy,320,2013-03-06 16:15:00
11:35 AM,45.7,28.4,51,29.77,10.0,NW,29.9,35.7,N/A,,Scattered Clouds,320,2013-03-06 16:35:00
11:55 AM,45.3,28.4,52,29.78,10.0,NW,19.6,36.8,N/A,,Mostly Cloudy,320,2013-03-06 16:55:00
12:15 PM,44.6,28.0,52,29.79,10.0,NW,25.3,33.4,N/A,,Overcast,320,2013-03-06 17:15:00
12:35 PM,46.6,28.9,50,29.79,10.0,NW,28.8,36.8,N/A,,Mostly Cloudy,320,2013-03-06 17:35:00
12:55 PM,47.3,30.0,51,29.79,10.0,NNW,24.2,34.5,N/A,,Scattered Clouds,340,2013-03-06 17:55:00
1:15 PM,47.5,29.5,50,29.79,10.0,NW,26.5,34.5,N/A,,Clear,320,2013-03-06 18:15:00
1:35 PM,47.5,29.1,49,29.80,10.0,NW,24.2,38.0,N/A,,Scattered Clouds,320,2013-03-06 18:35:00
1:55 PM,47.8,29.8,50,29.80,10.0,NNW,20.7,34.5,N/A,,Scattered Clouds,330,2013-03-06 18:55:00
2:15 PM,47.7,29.7,50,29.81,10.0,NNW,24.2,32.2,N/A,,Scattered Clouds,330,2013-03-06 19:15:00
2:35 PM,48.4,31.3,52,29.82,10.0,NNW,21.9,31.1,N/A,,Scattered Clouds,330,2013-03-06 19:35:00
2:55 PM,48.0,30.2,50,29.84,10.0,NNW,23.0,32.2,N/A,,Scattered Clouds,330,2013-03-06 19:55:00
3:15 PM,48.0,30.7,51,29.86,10.0,NW,19.6,28.8,N/A,,Mostly Cloudy,320,2013-03-06 20:15:00
3:35 PM,46.4,30.4,54,29.88,10.0,NNW,23.0,32.2,N/A,,Overcast,330,2013-03-06 20:35:00
3:55 PM,45.9,30.2,54,29.90,10.0,NNW,19.6,35.7,N/A,,Mostly Cloudy,340,2013-03-06 20:55:00
4:15 PM,44.6,30.0,57,29.92,10.0,NNW,23.0,29.9,N/A,,Mostly Cloudy,330,2013-03-06 21:15:00
4:35 PM,43.9,30.2,59,29.93,10.0,NW,23.0,28.8,N/A,,Overcast,320,2013-03-06 21:35:00
5:15 PM,43.7,30.0,59,29.95,10.0,NNW,25.3,31.1,N/A,,Scattered Clouds,340,2013-03-06 22:15:00
5:35 PM,43.7,30.4,59,29.97,10.0,NW,13.8,23.0,N/A,,Clear,310,2013-03-06 22:35:00
5:55 PM,43.0,29.8,60,29.99,10.0,NNW,6.9,-,N/A,,Clear,330,2013-03-06 22:55:00
6:15 PM,41.7,30.2,64,30.01,10.0,NW,9.2,17.3,N/A,,Clear,320,2013-03-06 23:15:00
6:35 PM,41.0,30.2,65,30.02,10.0,NNW,9.2,18.4,N/A,,Scattered Clouds,330,2013-03-06 23:35:00
6:55 PM,40.6,30.2,66,30.03,10.0,NNW,10.4,20.7,N/A,,Clear,330,2013-03-06 23:55:00
7:15 PM,40.3,30.2,67,30.05,10.0,NNW,8.1,-,N/A,,Scattered Clouds,330,2013-03-07 00:15:00
7:35 PM,39.7,30.7,70,30.04,10.0,NW,12.7,-,N/A,,Mostly Cloudy,320,2013-03-07 00:35:00
7:55 PM,40.1,30.2,68,30.04,10.0,NNW,12.7,-,N/A,,Scattered Clouds,330,2013-03-07 00:55:00
8:15 PM,40.1,30.2,68,30.05,10.0,NNW,11.5,-,N/A,,Clear,340,2013-03-07 01:15:00
8:35 PM,39.9,30.0,68,30.05,10.0,NNW,8.1,-,N/A,,Scattered Clouds,330,2013-03-07 01:35:00
8:55 PM,40.1,30.0,67,30.06,10.0,NNW,6.9,-,N/A,,Mostly Cloudy,330,2013-03-07 01:55:00
9:15 PM,40.3,30.6,68,30.07,10.0,North,11.5,-,N/A,,Mostly Cloudy,350,2013-03-07 02:15:00
9:35 PM,41.0,30.7,67,30.08,10.0,NNW,8.1,21.9,N/A,,Overcast,340,2013-03-07 02:35:00
9:55 PM,41.4,30.9,66,30.09,10.0,NNW,10.4,16.1,N/A,,Overcast,340,2013-03-07 02:55:00
10:15 PM,41.2,30.7,66,30.09,10.0,North,12.7,-,N/A,,Overcast,350,2013-03-07 03:15:00
10:35 PM,41.5,30.7,65,30.09,10.0,NNW,8.1,-,N/A,,Overcast,340,2013-03-07 03:35:00
10:55 PM,41.4,30.9,66,30.09,10.0,NNW,11.5,19.6,N/A,,Overcast,340,2013-03-07 03:55:00
11:15 PM,41.7,30.7,65,30.09,10.0,NNW,12.7,21.9,N/A,,Overcast,340,2013-03-07 04:15:00
11:35 PM,41.9,30.7,65,30.09,10.0,NNW,13.8,23.0,N/A,,Overcast,340,2013-03-07 04:35:00
11:55 PM,41.9,30.6,64,30.10,10.0,NNW,9.2,21.9,N/A,,Overcast,340,2013-03-07 04:55:00